createdAt,value
2018-05-14T00:02:22.694Z,99.90
2018-05-14T00:04:57.302Z,99.90
2018-05-14T00:07:33.431Z,99.90
2018-05-14T00:10:07.961Z,99.90
2018-05-14T00:12:42.616Z,99.90
2018-05-14T00:15:17.952Z,99.90
2018-05-14T00:17:52.549Z,99.90
2018-05-14T00:20:27.304Z,99.90
2018-05-14T00:23:01.900Z,99.90
2018-05-14T00:25:37.365Z,99.90
2018-05-14T00:28:11.970Z,99.90
2018-05-14T00:30:46.615Z,99.90
2018-05-14T00:33:21.261Z,99.90
2018-05-14T00:35:55.975Z,99.90
2018-05-14T00:38:30.726Z,99.90
2018-05-14T00:41:06.105Z,99.90
2018-05-14T00:43:41.438Z,99.90
2018-05-14T00:46:16.132Z,99.90
2018-05-14T00:48:50.702Z,99.90
2018-05-14T00:51:26.181Z,99.90
2018-05-14T00:54:00.874Z,99.90
2018-05-14T00:56:35.690Z,99.90
2018-05-14T00:59:10.235Z,99.90
2018-05-14T01:01:45.017Z,99.90
2018-05-14T01:04:20.454Z,99.90
2018-05-14T01:06:55.221Z,99.90
2018-05-14T01:09:30.062Z,99.90
2018-05-14T01:12:04.775Z,99.90
2018-05-14T01:14:39.577Z,99.90
2018-05-14T01:17:15.130Z,99.90
2018-05-14T01:19:49.791Z,99.90
2018-05-14T01:22:24.460Z,99.90
2018-05-14T01:25:03.330Z,99.90
2018-05-14T01:27:37.975Z,99.90
2018-05-14T01:30:12.607Z,99.90
2018-05-14T01:32:48.453Z,99.90
2018-05-14T01:35:23.267Z,99.90
2018-05-14T01:37:58.819Z,99.90
2018-05-14T01:40:33.423Z,99.90
2018-05-14T01:43:07.978Z,99.90
2018-05-14T01:45:42.638Z,99.90
2018-05-14T01:48:17.271Z,99.90
2018-05-14T01:50:52.228Z,99.90
2018-05-14T01:53:27.054Z,99.90
2018-05-14T01:56:01.725Z,99.90
2018-05-14T01:58:37.059Z,99.90
2018-05-14T02:01:11.706Z,99.90
2018-05-14T02:03:46.341Z,99.90
2018-05-14T02:06:21.060Z,99.90
2018-05-14T02:08:55.644Z,99.90
2018-05-14T02:11:30.471Z,99.90
2018-05-14T02:14:05.063Z,99.90
2018-05-14T02:16:39.761Z,99.90
2018-05-14T02:19:14.538Z,99.90
2018-05-14T02:21:49.898Z,99.90
2018-05-14T02:24:25.451Z,99.90
2018-05-14T02:27:00.797Z,99.90
2018-05-14T02:29:35.448Z,99.90
2018-05-14T02:32:10.047Z,99.90
2018-05-14T02:34:44.690Z,99.90
2018-05-14T02:37:19.319Z,99.90
2018-05-14T02:39:54.040Z,99.90
2018-05-14T02:42:28.936Z,99.90
2018-05-14T02:45:03.322Z,99.90
2018-05-14T02:47:37.884Z,99.90
2018-05-14T02:50:12.640Z,99.90
2018-05-14T02:52:47.273Z,99.90
2018-05-14T02:55:21.870Z,99.90
2018-05-14T02:57:56.568Z,99.90
2018-05-14T03:00:31.336Z,99.90
2018-05-14T03:03:06.766Z,99.90
2018-05-14T03:05:42.210Z,99.90
2018-05-14T03:08:16.900Z,99.90
2018-05-14T03:10:51.601Z,99.90
2018-05-14T03:13:26.173Z,99.90
2018-05-14T03:16:00.761Z,99.90
2018-05-14T03:18:35.578Z,99.90
2018-05-14T03:21:10.173Z,99.90
2018-05-14T03:23:44.788Z,99.90
2018-05-14T03:26:19.454Z,99.90
2018-05-14T03:28:55.706Z,99.90
2018-05-14T03:31:30.484Z,99.90
2018-05-14T03:34:06.035Z,99.90
2018-05-14T03:36:40.806Z,99.90
2018-05-14T03:39:15.382Z,99.90
2018-05-14T03:41:50.024Z,99.90
2018-05-14T03:44:24.742Z,99.90
2018-05-14T03:46:59.304Z,99.90
2018-05-14T03:49:33.886Z,99.90
2018-05-14T03:52:08.487Z,99.90
2018-05-14T03:54:44.081Z,99.90
2018-05-14T03:57:18.825Z,99.90
2018-05-14T04:00:04.812Z,99.90
2018-05-14T04:02:50.872Z,99.90
2018-05-14T04:05:36.859Z,99.90
2018-05-14T04:08:11.591Z,99.90
2018-05-14T04:10:46.308Z,99.90
2018-05-14T04:13:20.943Z,99.90
2018-05-14T04:15:55.574Z,99.90
2018-05-14T04:18:30.193Z,99.90
2018-05-14T04:21:04.547Z,99.90
2018-05-14T04:23:39.333Z,99.90
2018-05-14T04:26:14.133Z,99.90
2018-05-14T04:28:49.549Z,99.90
2018-05-14T04:31:24.055Z,99.90
2018-05-14T04:34:03.836Z,99.90
2018-05-14T04:36:38.380Z,99.90
2018-05-14T04:39:13.032Z,99.90
2018-05-14T04:41:48.402Z,99.90
2018-05-14T04:44:23.372Z,99.90
2018-05-14T04:46:58.055Z,99.90
2018-05-14T04:49:32.746Z,99.90
2018-05-14T04:52:07.533Z,99.90
2018-05-14T04:54:42.154Z,99.90
2018-05-14T04:57:16.743Z,99.90
2018-05-14T04:59:52.899Z,99.90
2018-05-14T05:02:27.508Z,99.90
2018-05-14T05:05:02.193Z,99.90
2018-05-14T05:07:36.882Z,99.90
2018-05-14T05:10:11.535Z,99.90
2018-05-14T05:12:46.180Z,99.90
2018-05-14T05:15:20.804Z,99.90
2018-05-14T05:17:57.453Z,99.90
2018-05-14T05:20:32.298Z,99.90
2018-05-14T05:23:07.091Z,99.90
2018-05-14T05:25:41.740Z,99.90
2018-05-14T05:28:16.448Z,99.90
2018-05-14T05:30:51.335Z,99.90
2018-05-14T05:33:26.266Z,99.90
2018-05-14T05:36:01.164Z,99.90
2018-05-14T05:38:35.945Z,99.90
2018-05-14T05:41:10.629Z,99.90
2018-05-14T05:43:45.313Z,99.90
2018-05-14T05:46:19.954Z,99.90
2018-05-14T05:48:54.798Z,99.90
2018-05-14T05:51:29.462Z,99.90
2018-05-14T05:54:04.309Z,99.90
2018-05-14T05:56:39.644Z,99.90
2018-05-14T05:59:15.239Z,99.90
2018-05-14T06:01:44.203Z,99.90
2018-05-14T06:04:13.360Z,99.90
2018-05-14T06:06:43.142Z,99.90
2018-05-14T06:09:13.201Z,99.90
2018-05-14T06:11:42.582Z,99.90
2018-05-14T06:14:11.878Z,99.90
2018-05-14T06:16:41.629Z,99.90
2018-05-14T06:19:11.747Z,99.90
2018-05-14T06:21:41.622Z,99.90
2018-05-14T06:24:10.693Z,99.90
2018-05-14T06:26:39.715Z,99.90
2018-05-14T06:29:08.899Z,99.90
2018-05-14T06:31:38.039Z,99.90
2018-05-14T06:34:07.142Z,99.90
2018-05-14T06:36:41.887Z,99.90
2018-05-14T06:39:16.721Z,99.90
2018-05-14T06:41:51.537Z,99.90
2018-05-14T06:44:26.257Z,99.90
2018-05-14T06:47:01.072Z,99.90
2018-05-14T06:49:35.748Z,99.90
2018-05-14T06:52:10.348Z,99.90
2018-05-14T06:54:44.978Z,99.90
2018-05-14T06:57:19.638Z,99.90
2018-05-14T06:59:54.654Z,99.90
2018-05-14T07:02:29.395Z,99.90
2018-05-14T07:05:04.268Z,99.90
2018-05-14T07:07:38.840Z,99.90
2018-05-14T07:10:13.457Z,99.90
2018-05-14T07:12:48.953Z,99.90
2018-05-14T07:15:23.683Z,99.90
2018-05-14T07:17:58.272Z,99.90
2018-05-14T07:20:32.968Z,99.90
2018-05-14T07:23:07.587Z,99.90
2018-05-14T07:25:42.270Z,99.90
2018-05-14T07:28:16.961Z,99.90
2018-05-14T07:30:46.735Z,99.90
2018-05-14T07:33:15.701Z,99.90
2018-05-14T07:35:50.297Z,99.90
2018-05-14T07:38:25.109Z,99.90
2018-05-14T07:41:00.172Z,99.90
2018-05-14T07:43:35.649Z,99.90
2018-05-14T07:46:10.557Z,99.90
2018-05-14T07:48:46.138Z,99.90
2018-05-14T07:51:20.912Z,99.90
2018-05-14T07:53:55.586Z,99.90
2018-05-14T07:56:30.294Z,99.90
2018-05-14T07:59:04.647Z,99.90
2018-05-14T08:01:39.372Z,99.90
2018-05-14T08:04:14.830Z,99.90
2018-05-14T08:06:49.599Z,99.90
2018-05-14T08:09:24.185Z,99.90
2018-05-14T08:11:58.964Z,99.90
2018-05-14T08:14:33.628Z,99.90
2018-05-14T08:17:08.551Z,99.90
2018-05-14T08:19:43.225Z,99.90
2018-05-14T08:22:18.987Z,99.90
2018-05-14T08:24:54.586Z,99.90
2018-05-14T08:27:29.364Z,99.90
2018-05-14T08:30:03.391Z,99.90
2018-05-14T08:32:38.145Z,99.90
2018-05-14T08:35:12.948Z,99.90
2018-05-14T08:37:47.790Z,99.90
2018-05-14T08:40:23.352Z,99.90
2018-05-14T08:42:58.899Z,99.90
2018-05-14T08:45:33.621Z,99.90
2018-05-14T08:48:08.640Z,99.90
2018-05-14T08:50:43.486Z,99.90
2018-05-14T08:53:18.429Z,99.90
2018-05-14T08:55:53.262Z,99.90
2018-05-14T08:58:28.912Z,99.90
2018-05-14T09:01:04.308Z,99.90
2018-05-14T09:03:39.151Z,99.90
2018-05-14T09:06:13.977Z,99.90
2018-05-14T09:08:48.863Z,99.90
2018-05-14T09:11:23.906Z,99.90
2018-05-14T09:13:59.495Z,99.90
2018-05-14T09:16:39.121Z,99.90
2018-05-14T09:19:14.016Z,99.90
2018-05-14T09:21:49.673Z,99.90
2018-05-14T09:24:24.272Z,99.90
2018-05-14T09:26:58.897Z,99.90
2018-05-14T09:29:34.776Z,99.90
2018-05-14T09:32:10.169Z,99.90
2018-05-14T09:34:45.645Z,99.90
2018-05-14T09:37:20.386Z,99.90
2018-05-14T09:39:55.390Z,99.90
2018-05-14T09:42:31.061Z,99.90
2018-05-14T09:45:05.688Z,99.90
2018-05-14T09:47:40.489Z,99.90
2018-05-14T09:50:16.021Z,99.90
2018-05-14T09:52:50.834Z,99.90
2018-05-14T09:55:25.457Z,99.90
2018-05-14T09:58:00.190Z,99.90
2018-05-14T10:00:34.716Z,99.90
2018-05-14T10:03:10.204Z,99.90
2018-05-14T10:05:44.976Z,99.90
2018-05-14T10:08:14.923Z,99.90
2018-05-14T10:10:49.544Z,99.90
2018-05-14T10:13:24.203Z,99.90
2018-05-14T10:15:58.740Z,99.90
2018-05-14T10:18:33.430Z,99.90
2018-05-14T10:21:08.006Z,99.90
2018-05-14T10:23:42.658Z,99.90
2018-05-14T10:26:18.137Z,99.90
2018-05-14T10:28:53.089Z,99.90
2018-05-14T10:31:27.666Z,99.90
2018-05-14T10:34:02.278Z,99.90
2018-05-14T10:36:36.900Z,99.90
2018-05-14T10:39:11.712Z,99.90
2018-05-14T10:41:46.381Z,99.90
2018-05-14T10:44:27.116Z,99.90
2018-05-14T10:47:01.902Z,99.90
2018-05-14T10:49:36.679Z,99.90
2018-05-14T10:52:11.567Z,99.90
2018-05-14T10:54:46.334Z,99.90
2018-05-14T10:57:21.667Z,99.90
2018-05-14T10:59:56.456Z,99.90
2018-05-14T11:02:32.071Z,99.90
2018-05-14T11:05:06.822Z,99.90
2018-05-14T11:07:41.618Z,99.90
2018-05-14T11:10:16.348Z,99.90
2018-05-14T11:12:51.031Z,99.90
2018-05-14T11:15:25.628Z,99.90
2018-05-14T11:17:55.425Z,99.90
2018-05-14T11:20:30.070Z,99.90
2018-05-14T11:23:04.631Z,99.90
2018-05-14T11:25:39.159Z,99.90
2018-05-14T11:28:13.729Z,99.90
2018-05-14T11:30:48.549Z,99.90
2018-05-14T11:33:23.193Z,99.90
2018-05-14T11:35:58.718Z,99.90
2018-05-14T11:38:34.133Z,99.90
2018-05-14T11:41:08.916Z,99.90
2018-05-14T11:43:43.582Z,99.90
2018-05-14T11:46:18.676Z,99.90
2018-05-14T11:48:54.086Z,99.90
2018-05-14T11:51:28.739Z,99.90
2018-05-14T11:54:03.595Z,99.90
2018-05-14T11:56:38.336Z,99.90
2018-05-14T11:59:13.173Z,99.90
2018-05-14T12:01:47.811Z,99.90
2018-05-14T12:04:22.417Z,99.90
2018-05-14T12:06:57.044Z,99.90
2018-05-14T12:09:31.647Z,99.90
2018-05-14T12:12:06.313Z,99.90
2018-05-14T12:14:41.142Z,99.90
2018-05-14T12:17:15.840Z,99.90
2018-05-14T12:19:50.492Z,99.90
2018-05-14T12:22:25.016Z,99.90
2018-05-14T12:24:59.615Z,99.90
2018-05-14T12:27:34.276Z,99.90
2018-05-14T12:30:08.908Z,99.90
2018-05-14T12:32:43.753Z,99.90
2018-05-14T12:35:18.512Z,99.90
2018-05-14T12:37:53.255Z,99.90
2018-05-14T12:40:28.619Z,99.90
2018-05-14T12:43:04.167Z,99.90
2018-05-14T12:45:38.767Z,99.90
2018-05-14T12:48:13.439Z,99.90
2018-05-14T12:50:48.231Z,99.90
2018-05-14T12:53:23.599Z,99.90
2018-05-14T12:55:58.930Z,99.90
2018-05-14T12:58:33.520Z,99.90
2018-05-14T13:01:08.089Z,99.90
2018-05-14T13:03:42.768Z,99.90
2018-05-14T13:06:17.410Z,99.90
2018-05-14T13:08:48.809Z,99.90
2018-05-14T13:11:23.531Z,99.90
2018-05-14T13:13:58.211Z,99.90
2018-05-14T13:16:32.789Z,99.90
2018-05-14T13:19:04.081Z,99.90
2018-05-14T13:21:33.921Z,99.90
2018-05-14T13:24:03.168Z,99.90
2018-05-14T13:26:33.241Z,99.90
2018-05-14T13:29:02.325Z,99.90
2018-05-14T13:31:32.137Z,99.90
2018-05-14T13:34:02.909Z,99.90
2018-05-14T13:36:32.823Z,99.90
2018-05-14T13:39:01.999Z,99.90
2018-05-14T13:41:31.899Z,99.90
2018-05-14T13:44:01.112Z,99.90
2018-05-14T13:46:31.139Z,99.90
2018-05-14T13:49:00.346Z,99.90
2018-05-14T13:51:29.360Z,99.90
2018-05-14T13:53:58.646Z,99.90
2018-05-14T13:56:28.409Z,99.90
2018-05-14T13:58:57.354Z,99.90
2018-05-14T14:01:26.374Z,99.90
2018-05-14T14:03:55.623Z,99.90
2018-05-14T14:06:25.502Z,99.90
2018-05-14T14:08:54.751Z,99.90
2018-05-14T14:11:24.094Z,99.90
2018-05-14T14:13:53.207Z,99.90
2018-05-14T14:16:22.161Z,99.90
2018-05-14T14:18:51.370Z,99.90
2018-05-14T14:21:20.511Z,99.90
2018-05-14T14:23:49.695Z,99.90
2018-05-14T14:26:19.404Z,99.90
2018-05-14T14:28:48.564Z,99.90
2018-05-14T14:31:17.703Z,99.90
2018-05-14T14:33:46.827Z,99.90
2018-05-14T14:36:15.817Z,99.90
2018-05-14T14:38:44.766Z,99.90
2018-05-14T14:41:14.709Z,99.90
2018-05-14T14:43:44.578Z,99.90
2018-05-14T14:46:13.727Z,99.90
2018-05-14T14:48:42.772Z,99.60
2018-05-14T14:51:12.160Z,97.80
2018-05-14T14:53:41.323Z,97.80
2018-05-14T14:56:10.526Z,98.30
2018-05-14T14:58:39.673Z,97.00
2018-05-14T15:01:09.640Z,94.10
2018-05-14T15:03:41.317Z,94.10
2018-05-14T15:06:10.488Z,93.00
2018-05-14T15:08:39.635Z,91.20
2018-05-14T15:11:09.602Z,90.90
2018-05-14T15:13:38.749Z,90.90
2018-05-14T15:16:08.665Z,86.10
2018-05-14T15:18:38.578Z,87.80
2018-05-14T15:21:07.578Z,87.80
2018-05-14T15:23:36.591Z,87.20
2018-05-14T15:26:06.655Z,85.80
2018-05-14T15:28:35.779Z,83.70
2018-05-14T15:31:04.882Z,84.40
2018-05-14T15:33:34.038Z,82.10
2018-05-14T15:36:03.128Z,77.30
2018-05-14T15:38:32.968Z,79.60
2018-05-14T15:41:02.040Z,79.60
2018-05-14T15:43:32.251Z,80.80
2018-05-14T15:46:01.327Z,80.70
2018-05-14T15:48:31.204Z,77.50
2018-05-14T15:51:00.705Z,77.50
2018-05-14T15:53:29.836Z,74.40
2018-05-14T15:55:58.936Z,74.70
2018-05-14T15:58:28.083Z,77.10
2018-05-14T16:00:57.231Z,77.60
2018-05-14T16:03:26.371Z,73.50
2018-05-14T16:05:56.137Z,73.20
2018-05-14T16:08:25.322Z,73.00
2018-05-14T16:10:54.429Z,74.30
2018-05-14T16:13:23.586Z,72.90
2018-05-14T16:15:53.305Z,69.30
2018-05-14T16:18:23.798Z,68.20
2018-05-14T16:20:53.023Z,68.20
2018-05-14T16:23:22.615Z,67.70
2018-05-14T16:25:51.773Z,64.20
2018-05-14T16:28:21.750Z,62.20
2018-05-14T16:30:50.539Z,62.10
2018-05-14T16:33:19.997Z,59.40
2018-05-14T16:35:49.091Z,58.60
2018-05-14T16:38:18.783Z,59.20
2018-05-14T16:40:49.165Z,58.90
2018-05-14T16:43:18.045Z,58.90
2018-05-14T16:45:47.138Z,59.50
2018-05-14T16:48:16.390Z,58.80
2018-05-14T16:50:45.620Z,59.10
2018-05-14T16:53:15.606Z,60.20
2018-05-14T16:55:44.564Z,60.20
2018-05-14T16:58:13.826Z,59.50
2018-05-14T17:00:42.996Z,59.70
2018-05-14T17:03:12.062Z,60.20
2018-05-14T17:05:41.288Z,60.00
2018-05-14T17:08:11.333Z,60.70
2018-05-14T17:10:40.498Z,60.60
2018-05-14T17:13:09.744Z,60.00
2018-05-14T17:15:39.173Z,60.00
2018-05-14T17:18:09.005Z,60.40
2018-05-14T17:20:38.278Z,59.40
2018-05-14T17:23:07.393Z,59.60
2018-05-14T17:25:36.778Z,59.80
2018-05-14T17:28:05.874Z,60.00
2018-05-14T17:30:35.380Z,60.50
2018-05-14T17:33:05.794Z,62.20
2018-05-14T17:35:34.952Z,62.10
2018-05-14T17:38:04.199Z,63.30
2018-05-14T17:40:33.405Z,60.70
2018-05-14T17:43:02.552Z,60.40
2018-05-14T17:45:31.615Z,61.00
2018-05-14T17:48:01.589Z,62.20
2018-05-14T17:50:30.876Z,61.60
2018-05-14T17:53:00.964Z,62.10
2018-05-14T17:55:30.063Z,62.00
2018-05-14T17:57:59.366Z,62.70
2018-05-14T18:00:33.985Z,63.50
2018-05-14T18:03:08.672Z,63.80
2018-05-14T18:05:43.266Z,63.90
2018-05-14T18:08:17.962Z,64.50
2018-05-14T18:10:52.917Z,64.40
2018-05-14T18:13:27.821Z,64.50
2018-05-14T18:16:03.288Z,65.60
2018-05-14T18:18:37.904Z,65.50
2018-05-14T18:21:12.274Z,65.60
2018-05-14T18:23:47.676Z,65.20
2018-05-14T18:26:26.127Z,65.80
2018-05-14T18:29:09.343Z,66.50
2018-05-14T18:31:44.759Z,67.50
2018-05-14T18:34:16.581Z,67.30
2018-05-14T18:36:46.509Z,68.20
2018-05-14T18:39:15.791Z,68.20
2018-05-14T18:41:45.787Z,69.30
2018-05-14T18:44:14.573Z,69.30
2018-05-14T18:46:43.698Z,69.50
2018-05-14T18:49:12.663Z,70.10
2018-05-14T18:51:42.108Z,70.60
2018-05-14T18:54:11.063Z,71.20
2018-05-14T18:56:40.033Z,71.30
2018-05-14T18:59:09.317Z,71.60
2018-05-14T19:01:39.868Z,72.20
2018-05-14T19:04:09.079Z,72.20
2018-05-14T19:06:39.590Z,72.60
2018-05-14T19:09:08.664Z,73.00
2018-05-14T19:11:44.116Z,73.70
2018-05-14T19:14:13.281Z,73.70
2018-05-14T19:16:47.699Z,74.80
2018-05-14T19:19:17.798Z,75.10
2018-05-14T19:21:48.384Z,76.10
2018-05-14T19:24:17.271Z,76.10
2018-05-14T19:26:46.447Z,76.20
2018-05-14T19:29:21.928Z,76.80
2018-05-14T19:31:51.257Z,76.50
2018-05-14T19:34:25.786Z,77.00
2018-05-14T19:36:55.636Z,77.90
2018-05-14T19:39:30.013Z,77.90
2018-05-14T19:41:59.021Z,78.40
2018-05-14T19:44:28.977Z,79.40
2018-05-14T19:46:58.351Z,79.40
2018-05-14T19:49:28.228Z,80.40
2018-05-14T19:51:57.572Z,80.30
2018-05-14T19:54:33.444Z,80.50
2018-05-14T19:57:08.016Z,80.80
2018-05-14T19:59:42.703Z,81.40
2018-05-14T20:02:17.321Z,81.70
2018-05-14T20:04:52.120Z,82.10
2018-05-14T20:07:26.780Z,82.10
2018-05-14T20:10:01.422Z,82.80
2018-05-14T20:12:30.501Z,83.20
2018-05-14T20:14:59.615Z,83.40
2018-05-14T20:17:28.635Z,83.80
2018-05-14T20:19:57.751Z,83.90
2018-05-14T20:22:26.848Z,84.30
2018-05-14T20:24:55.985Z,84.50
2018-05-14T20:27:24.959Z,84.80
2018-05-14T20:29:54.492Z,85.40
2018-05-14T20:32:23.640Z,85.40
2018-05-14T20:34:53.961Z,86.80
2018-05-14T20:37:23.088Z,86.00
2018-05-14T20:39:52.559Z,86.50
2018-05-14T20:42:22.481Z,87.60
2018-05-14T20:44:52.329Z,87.90
2018-05-14T20:47:22.524Z,88.40
2018-05-14T20:49:57.112Z,88.30
2018-05-14T20:52:31.829Z,88.90
2018-05-14T20:55:00.891Z,89.50
2018-05-14T21:10:35.750Z,90.00
2018-05-14T21:13:10.295Z,91.40
2018-05-14T21:15:44.902Z,91.60
2018-05-14T21:18:14.857Z,92.30
2018-05-14T21:20:49.773Z,92.30
2018-05-14T21:23:25.239Z,93.00
2018-05-14T21:26:00.922Z,93.40
2018-05-14T21:28:35.559Z,93.30
2018-05-14T21:31:11.088Z,93.90
2018-05-14T21:33:45.751Z,93.90
2018-05-14T21:36:21.155Z,94.60
2018-05-14T21:38:56.580Z,95.00
2018-05-14T21:41:31.135Z,94.90
2018-05-14T21:44:06.028Z,95.60
2018-05-14T21:46:40.741Z,95.80
2018-05-14T21:49:15.590Z,96.10
2018-05-14T21:51:45.417Z,97.10
2018-05-14T21:54:20.043Z,96.80
2018-05-14T21:56:54.726Z,97.40
2018-05-14T21:59:30.285Z,97.90
2018-05-14T22:02:05.044Z,97.80
2018-05-14T22:04:39.879Z,98.20
2018-05-14T22:07:16.121Z,98.80
2018-05-14T22:09:50.769Z,98.80
2018-05-14T22:12:25.537Z,99.20
2018-05-14T22:15:00.932Z,99.80
2018-05-14T22:17:35.563Z,99.80
2018-05-14T22:20:10.218Z,99.90
2018-05-14T22:22:45.028Z,99.90
2018-05-14T22:25:19.709Z,99.90
2018-05-14T22:27:54.394Z,99.90
2018-05-14T22:30:28.988Z,99.90
2018-05-14T22:33:03.559Z,99.90
2018-05-14T22:35:38.119Z,99.90
2018-05-14T22:38:13.502Z,99.90
2018-05-14T22:40:48.982Z,99.90
2018-05-14T22:43:23.701Z,99.90
2018-05-14T22:45:58.409Z,99.90
2018-05-14T22:48:33.197Z,99.90
2018-05-14T22:51:07.795Z,99.90
2018-05-14T22:53:42.411Z,99.90
2018-05-14T22:56:17.081Z,99.90
2018-05-14T22:58:51.742Z,99.90
2018-05-14T23:01:27.213Z,99.90
2018-05-14T23:04:01.727Z,99.90
2018-05-14T23:06:36.366Z,99.90
2018-05-14T23:09:11.081Z,99.90
2018-05-14T23:11:40.175Z,99.90
2018-05-14T23:14:14.840Z,99.90
2018-05-14T23:16:49.410Z,99.90
2018-05-14T23:19:24.798Z,99.90
2018-05-14T23:21:59.395Z,99.90
2018-05-14T23:24:34.003Z,99.90
2018-05-14T23:27:09.363Z,99.90
2018-05-14T23:29:44.006Z,99.90
2018-05-14T23:32:18.600Z,99.90
2018-05-14T23:34:54.127Z,99.90
2018-05-14T23:37:28.755Z,99.90
2018-05-14T23:40:04.397Z,99.90
2018-05-14T23:42:39.187Z,99.90
2018-05-14T23:45:13.781Z,99.90
2018-05-14T23:47:48.283Z,99.90
2018-05-14T23:50:22.943Z,99.90
2018-05-14T23:52:58.267Z,99.90
2018-05-14T23:55:33.275Z,99.90
2018-05-14T23:58:08.050Z,99.90
